createdAt,value
2022-12-23T00:02:14.975Z,2.70
2022-12-23T00:05:17.959Z,3.70
2022-12-23T00:08:22.059Z,1.93
2022-12-23T00:11:26.848Z,1.63
2022-12-23T00:14:46.936Z,1.40
2022-12-23T00:17:49.767Z,1.30
2022-12-23T00:21:02.138Z,1.93
2022-12-23T00:24:07.808Z,2.30
2022-12-23T00:27:11.871Z,2.70
2022-12-23T00:30:14.772Z,2.20
2022-12-23T00:33:19.840Z,2.73
2022-12-23T00:36:27.716Z,3.70
2022-12-23T00:39:53.572Z,5.03
2022-12-23T00:42:58.949Z,5.27
2022-12-23T00:46:01.985Z,5.30
2022-12-23T00:49:22.650Z,5.30
2022-12-23T00:52:25.317Z,5.23
2022-12-23T00:55:28.122Z,5.80
2022-12-23T00:58:32.941Z,5.97
2022-12-23T01:01:53.201Z,5.80
2022-12-23T01:05:18.719Z,5.50
2022-12-23T01:08:21.363Z,5.97
2022-12-23T01:11:23.984Z,6.50
2022-12-23T01:14:28.308Z,6.47
2022-12-23T01:17:31.221Z,6.67
2022-12-23T01:20:33.854Z,7.17
2022-12-23T01:23:37.099Z,7.27
2022-12-23T01:26:39.769Z,7.73
2022-12-23T01:29:43.749Z,6.03
2022-12-23T01:32:46.350Z,8.17
2022-12-23T01:35:49.306Z,6.60
2022-12-23T01:38:52.352Z,5.93
2022-12-23T01:42:12.552Z,6.40
2022-12-23T01:45:19.876Z,5.93
2022-12-23T01:48:26.185Z,7.10
2022-12-23T01:51:31.167Z,5.97
2022-12-23T01:54:34.584Z,6.57
2022-12-23T01:57:39.973Z,6.87
2022-12-23T02:01:02.102Z,6.47
2022-12-23T02:04:08.495Z,7.50
2022-12-23T02:07:32.289Z,7.17
2022-12-23T02:10:46.618Z,6.67
2022-12-23T02:14:17.897Z,7.67
2022-12-23T02:17:30.163Z,7.10
2022-12-23T02:21:06.161Z,7.07
2022-12-23T02:24:39.945Z,7.13
2022-12-23T02:27:56.835Z,9.13
2022-12-23T02:31:04.519Z,7.63
2022-12-23T02:34:15.992Z,6.40
2022-12-23T02:37:23.202Z,9.40
2022-12-23T02:40:36.111Z,18.60
2022-12-23T02:43:44.556Z,22.53
2022-12-23T02:46:52.112Z,6.70
2022-12-23T02:49:57.964Z,7.90
2022-12-23T02:53:05.369Z,6.73
2022-12-23T02:56:11.284Z,6.47
2022-12-23T02:59:20.375Z,8.20
2022-12-23T03:02:25.287Z,6.63
2022-12-23T03:05:30.282Z,7.13
2022-12-23T03:08:40.427Z,7.23
2022-12-23T03:11:51.270Z,7.00
2022-12-23T03:15:09.043Z,7.00
2022-12-23T03:18:24.520Z,6.37
2022-12-23T03:21:36.374Z,5.60
2022-12-23T03:24:45.842Z,6.13
2022-12-23T03:27:53.580Z,6.70
2022-12-23T03:30:59.866Z,5.90
2022-12-23T03:34:07.661Z,6.20
2022-12-23T03:37:14.721Z,6.30
2022-12-23T03:40:20.479Z,4.97
2022-12-23T03:43:28.469Z,5.60
2022-12-23T03:46:35.333Z,5.30
2022-12-23T03:49:43.856Z,3.17
2022-12-23T03:52:53.627Z,3.80
2022-12-23T03:56:00.859Z,2.67
2022-12-23T03:59:09.192Z,2.73
2022-12-23T04:02:17.419Z,2.50
2022-12-23T04:05:27.317Z,2.17
2022-12-23T04:08:33.810Z,1.90
2022-12-23T04:11:38.107Z,1.40
2022-12-23T04:14:47.070Z,1.27
2022-12-23T04:17:50.608Z,0.93
2022-12-23T04:20:54.669Z,0.97
2022-12-23T04:23:57.367Z,0.80
2022-12-23T04:27:00.052Z,0.63
2022-12-23T04:30:03.416Z,0.70
2022-12-23T04:33:06.120Z,0.80
2022-12-23T04:36:10.199Z,0.60
2022-12-23T04:39:13.061Z,0.80
2022-12-23T04:42:15.778Z,0.80
2022-12-23T04:45:18.488Z,0.70
2022-12-23T04:48:21.449Z,0.40
2022-12-23T04:51:25.563Z,0.40
2022-12-23T04:54:28.520Z,0.40
2022-12-23T04:57:31.159Z,0.40
2022-12-23T05:00:39.501Z,0.40
2022-12-23T05:03:43.138Z,0.23
2022-12-23T05:06:47.173Z,0.30
2022-12-23T05:09:49.837Z,0.30
2022-12-23T05:12:52.531Z,0.30
2022-12-23T05:15:56.365Z,0.23
2022-12-23T05:18:59.130Z,0.30
2022-12-23T05:22:03.173Z,0.50
2022-12-23T05:25:06.921Z,0.30
2022-12-23T05:28:10.037Z,0.30
2022-12-23T05:31:13.942Z,0.40
2022-12-23T05:34:16.664Z,0.37
2022-12-23T05:37:20.756Z,0.30
2022-12-23T05:40:24.927Z,0.60
2022-12-23T05:43:30.023Z,0.40
2022-12-23T05:46:32.813Z,0.50
2022-12-23T05:49:35.651Z,0.50
2022-12-23T05:52:39.749Z,0.40
2022-12-23T05:55:42.530Z,1.20
2022-12-23T05:58:48.465Z,1.50
2022-12-23T06:01:51.436Z,1.90
2022-12-23T06:04:54.821Z,1.23
2022-12-23T06:07:59.228Z,1.80
2022-12-23T06:11:04.775Z,3.53
2022-12-23T06:14:07.747Z,3.73
2022-12-23T06:17:10.467Z,2.63
2022-12-23T06:20:20.049Z,3.50
2022-12-23T06:23:25.642Z,3.00
2022-12-23T06:26:28.435Z,3.20
2022-12-23T06:29:31.197Z,2.27
2022-12-23T06:32:38.281Z,4.17
2022-12-23T06:35:41.408Z,4.30
2022-12-23T06:38:45.433Z,4.40
2022-12-23T06:41:48.198Z,3.80
2022-12-23T06:44:50.861Z,12.40
2022-12-23T06:47:53.627Z,9.23
2022-12-23T06:50:56.278Z,11.77
2022-12-23T06:54:02.019Z,4.97
2022-12-23T06:57:04.828Z,4.70
2022-12-23T07:00:10.107Z,3.87
2022-12-23T07:03:12.884Z,3.50
2022-12-23T07:06:15.675Z,5.43
2022-12-23T07:09:19.807Z,7.70
2022-12-23T07:12:22.559Z,6.53
2022-12-23T07:15:25.283Z,4.60
2022-12-23T07:18:28.250Z,5.27
2022-12-23T07:21:31.103Z,4.57
2022-12-23T07:24:35.191Z,4.20
2022-12-23T07:27:37.904Z,3.77
2022-12-23T07:30:40.594Z,3.77
2022-12-23T07:33:43.353Z,3.57
2022-12-23T07:36:46.208Z,3.23
2022-12-23T07:39:50.202Z,2.70
2022-12-23T07:42:56.435Z,2.70
2022-12-23T07:46:00.594Z,2.17
2022-12-23T07:49:03.824Z,2.43
2022-12-23T07:52:06.525Z,2.00
2022-12-23T07:55:11.149Z,2.70
2022-12-23T07:58:13.848Z,4.40
2022-12-23T08:01:17.183Z,5.70
2022-12-23T08:04:19.982Z,4.50
2022-12-23T08:07:22.964Z,3.90
2022-12-23T08:10:27.006Z,5.17
2022-12-23T08:13:29.906Z,6.67
2022-12-23T08:16:37.856Z,3.53
2022-12-23T08:19:44.217Z,3.83
2022-12-23T08:22:46.904Z,4.70
2022-12-23T08:25:50.995Z,4.40
2022-12-23T08:28:53.902Z,23.03
2022-12-23T08:31:57.053Z,29.03
2022-12-23T08:34:59.818Z,10.80
2022-12-23T08:38:02.539Z,12.40
2022-12-23T08:41:09.993Z,12.57
2022-12-23T08:44:12.897Z,11.03
2022-12-23T08:47:15.656Z,9.93
2022-12-23T08:50:18.607Z,5.07
2022-12-23T08:53:21.344Z,3.87
2022-12-23T08:56:27.505Z,2.47
2022-12-23T08:59:30.267Z,2.57
2022-12-23T09:02:33.261Z,3.93
2022-12-23T09:05:41.198Z,3.73
2022-12-23T09:08:44.805Z,3.97
2022-12-23T09:11:48.894Z,3.80
2022-12-23T09:14:51.608Z,4.70
2022-12-23T09:17:54.436Z,3.40
2022-12-23T09:20:59.702Z,3.23
2022-12-23T09:24:03.035Z,2.33
2022-12-23T09:27:07.094Z,2.13
2022-12-23T09:30:11.277Z,2.30
2022-12-23T09:33:14.544Z,2.70
2022-12-23T09:36:18.259Z,2.23
2022-12-23T09:39:21.063Z,1.90
2022-12-23T09:42:45.514Z,2.07
2022-12-23T09:46:00.688Z,1.80
2022-12-23T09:49:10.572Z,2.50
2022-12-23T09:52:19.804Z,4.27
2022-12-23T09:55:27.936Z,4.60
2022-12-23T09:58:38.696Z,3.80
2022-12-23T10:01:49.999Z,2.80
2022-12-23T10:05:04.212Z,3.53
2022-12-23T10:08:14.062Z,2.43
2022-12-23T10:11:20.039Z,2.53
2022-12-23T10:14:28.214Z,2.57
2022-12-23T10:17:39.461Z,3.90
2022-12-23T10:20:48.865Z,3.60
2022-12-23T10:23:53.524Z,3.90
2022-12-23T10:26:58.517Z,3.03
2022-12-23T10:30:33.861Z,3.30
2022-12-23T10:33:39.978Z,2.03
2022-12-23T10:36:51.402Z,3.03
2022-12-23T10:40:10.925Z,2.60
2022-12-23T10:43:23.851Z,2.43
2022-12-23T10:46:39.990Z,1.80
2022-12-23T10:49:54.242Z,2.30
2022-12-23T10:53:00.875Z,2.13
2022-12-23T10:56:06.499Z,2.23
2022-12-23T10:59:15.609Z,3.30
2022-12-23T11:02:38.595Z,2.20
2022-12-23T11:05:42.117Z,2.07
2022-12-23T11:08:45.287Z,2.00
2022-12-23T11:11:59.380Z,2.00
2022-12-23T11:15:02.415Z,2.83
2022-12-23T11:18:17.079Z,2.77
2022-12-23T11:21:19.755Z,2.63
2022-12-23T11:24:24.385Z,2.33
2022-12-23T11:27:27.131Z,1.50
2022-12-23T11:30:32.521Z,3.17
2022-12-23T11:33:39.731Z,1.20
2022-12-23T11:36:42.944Z,1.00
2022-12-23T11:39:47.817Z,1.57
2022-12-23T11:42:55.616Z,1.53
2022-12-23T11:46:27.442Z,1.90
2022-12-23T11:49:32.328Z,1.60
2022-12-23T11:52:35.103Z,1.57
2022-12-23T11:55:40.618Z,1.30
2022-12-23T11:58:48.893Z,3.40
2022-12-23T12:01:51.861Z,3.43
2022-12-23T12:05:00.848Z,19.57
2022-12-23T12:08:07.614Z,6.80
2022-12-23T12:11:15.528Z,2.03
2022-12-23T12:14:23.847Z,1.97
2022-12-23T12:17:32.442Z,2.03
2022-12-23T12:20:40.308Z,2.30
2022-12-23T12:23:47.747Z,2.57
2022-12-23T12:26:53.507Z,4.53
2022-12-23T12:30:06.124Z,3.97
2022-12-23T12:33:20.671Z,21.23
2022-12-23T12:36:34.154Z,7.13
2022-12-23T12:39:42.436Z,2.80
2022-12-23T12:42:53.135Z,1.97
2022-12-23T12:46:12.747Z,2.17
2022-12-23T12:49:23.521Z,2.07
2022-12-23T12:52:29.127Z,5.77
2022-12-23T12:55:36.166Z,14.33
2022-12-23T12:58:41.382Z,2.30
2022-12-23T13:01:53.991Z,3.50
2022-12-23T13:05:21.057Z,1.73
2022-12-23T13:08:38.004Z,2.30
2022-12-23T13:11:47.364Z,2.00
2022-12-23T13:14:59.475Z,2.47
2022-12-23T13:18:19.262Z,9.17
2022-12-23T13:21:29.010Z,9.17
2022-12-23T13:24:41.501Z,3.77
2022-12-23T13:27:53.416Z,4.17
2022-12-23T13:31:02.267Z,3.70
2022-12-23T13:34:14.862Z,12.37
2022-12-23T13:37:28.968Z,9.30
2022-12-23T13:40:39.422Z,5.17
2022-12-23T13:43:47.927Z,6.67
2022-12-23T13:46:59.590Z,6.23
2022-12-23T13:50:12.373Z,5.90
2022-12-23T13:53:25.797Z,6.07
2022-12-23T13:56:34.999Z,6.47
2022-12-23T13:59:43.034Z,8.70
2022-12-23T14:02:53.647Z,7.10
2022-12-23T14:05:56.330Z,10.20
2022-12-23T14:08:59.344Z,5.47
2022-12-23T14:12:21.836Z,6.03
2022-12-23T14:16:03.203Z,4.93
2022-12-23T14:19:37.966Z,6.47
2022-12-23T14:22:52.113Z,4.40
2022-12-23T14:26:07.060Z,5.80
2022-12-23T14:29:29.777Z,6.17
2022-12-23T14:32:44.773Z,9.37
2022-12-23T14:35:53.570Z,5.97
2022-12-23T14:39:33.051Z,3.73
2022-12-23T14:42:40.791Z,7.53
2022-12-23T14:45:45.783Z,9.47
2022-12-23T14:49:38.202Z,14.67
2022-12-23T14:52:46.663Z,8.70
2022-12-23T14:55:52.038Z,8.77
2022-12-23T14:59:17.490Z,6.83
2022-12-23T15:02:28.365Z,6.37
2022-12-23T15:05:31.466Z,6.10
2022-12-23T15:08:39.822Z,12.60
2022-12-23T15:11:42.527Z,12.40
2022-12-23T15:14:50.193Z,14.53
2022-12-23T15:18:03.738Z,9.27
2022-12-23T15:21:13.299Z,11.33
2022-12-23T15:24:18.220Z,15.30
2022-12-23T15:27:30.225Z,15.03
2022-12-23T15:30:37.506Z,14.57
2022-12-23T15:37:04.857Z,16.97
2022-12-23T15:40:23.225Z,18.13
2022-12-23T15:43:26.069Z,16.93
2022-12-23T15:46:30.626Z,20.87
2022-12-23T15:49:35.828Z,21.27
2022-12-23T15:52:41.620Z,15.07
2022-12-23T15:55:44.615Z,9.00
2022-12-23T15:58:47.926Z,8.13
2022-12-23T16:01:51.896Z,5.87
2022-12-23T16:04:59.313Z,4.17
2022-12-23T16:08:28.218Z,1.87
2022-12-23T16:11:51.118Z,1.83
2022-12-23T16:14:57.920Z,5.07
2022-12-23T16:18:14.221Z,12.90
2022-12-23T16:21:18.301Z,5.80
2022-12-23T16:24:21.869Z,1.50
2022-12-23T16:27:34.255Z,3.37
2022-12-23T16:30:39.124Z,2.20
2022-12-23T16:33:45.007Z,3.27
2022-12-23T16:36:49.150Z,4.20
2022-12-23T16:39:51.970Z,2.00
2022-12-23T16:42:54.681Z,4.03
2022-12-23T16:45:58.935Z,2.30
2022-12-23T16:49:04.930Z,2.20
2022-12-23T16:52:14.119Z,2.80
2022-12-23T16:55:18.961Z,1.30
2022-12-23T16:58:21.660Z,1.30
2022-12-23T17:01:27.412Z,2.17
2022-12-23T17:04:30.105Z,4.23
2022-12-23T17:07:34.138Z,1.60
2022-12-23T17:10:37.182Z,1.00
2022-12-23T17:13:40.065Z,1.57
2022-12-23T17:16:42.860Z,1.20
2022-12-23T17:19:45.776Z,0.83
2022-12-23T17:22:54.022Z,1.67
2022-12-23T17:25:56.945Z,1.50
2022-12-23T17:28:59.638Z,1.80
2022-12-23T17:32:02.742Z,1.57
2022-12-23T17:35:06.196Z,1.37
2022-12-23T17:38:14.550Z,1.23
2022-12-23T17:41:23.329Z,1.23
2022-12-23T17:44:26.083Z,1.20
2022-12-23T17:47:28.789Z,1.70
2022-12-23T17:50:34.232Z,1.50
2022-12-23T17:53:38.280Z,1.73
2022-12-23T17:56:41.388Z,1.40
2022-12-23T17:59:47.703Z,1.10
2022-12-23T18:02:51.016Z,1.10
2022-12-23T18:06:01.275Z,1.00
2022-12-23T18:09:06.229Z,0.90
2022-12-23T18:12:25.102Z,1.10
2022-12-23T18:15:34.598Z,0.80
2022-12-23T18:18:45.910Z,1.10
2022-12-23T18:21:50.015Z,1.10
2022-12-23T18:24:59.162Z,1.30
2022-12-23T18:28:02.424Z,0.87
2022-12-23T18:31:05.387Z,0.80
2022-12-23T18:34:08.100Z,1.10
2022-12-23T18:37:10.798Z,0.73
2022-12-23T18:40:15.354Z,0.80
2022-12-23T18:43:20.853Z,0.70
2022-12-23T18:46:23.662Z,0.80
2022-12-23T18:49:26.395Z,0.83
2022-12-23T18:52:29.265Z,0.80
2022-12-23T18:55:33.403Z,0.87
2022-12-23T18:58:36.964Z,0.90
2022-12-23T19:01:39.634Z,0.73
2022-12-23T19:04:42.900Z,0.90
2022-12-23T19:07:45.950Z,0.87
2022-12-23T19:10:50.765Z,0.80
2022-12-23T19:13:53.469Z,0.80
2022-12-23T19:16:59.845Z,0.90
2022-12-23T19:20:02.936Z,1.20
2022-12-23T19:23:05.620Z,0.80
2022-12-23T19:26:10.487Z,1.43
2022-12-23T19:29:13.432Z,0.93
2022-12-23T19:32:16.249Z,0.90
2022-12-23T19:35:21.073Z,1.00
2022-12-23T19:38:23.867Z,1.17
2022-12-23T19:41:28.003Z,1.10
2022-12-23T19:44:30.723Z,1.40
2022-12-23T19:47:33.463Z,1.10
2022-12-23T19:50:36.165Z,0.90
2022-12-23T19:53:39.694Z,0.80
2022-12-23T19:56:43.965Z,1.07
2022-12-23T19:59:47.169Z,0.90
2022-12-23T20:02:55.088Z,0.53
2022-12-23T20:06:01.124Z,0.80
2022-12-23T20:09:06.283Z,0.93
2022-12-23T20:12:10.487Z,0.80
2022-12-23T20:15:13.222Z,0.80
2022-12-23T20:18:15.867Z,1.10
2022-12-23T20:21:20.517Z,0.90
2022-12-23T20:24:23.258Z,0.90
2022-12-23T20:27:28.443Z,1.47
2022-12-23T20:30:31.226Z,0.90
2022-12-23T20:33:34.184Z,1.33
2022-12-23T20:36:38.089Z,1.23
2022-12-23T20:39:40.889Z,1.20
2022-12-23T20:42:46.325Z,1.50
2022-12-23T20:45:51.561Z,1.00
2022-12-23T20:48:54.503Z,0.80
2022-12-23T20:51:57.200Z,0.90
2022-12-23T20:55:01.630Z,0.97
2022-12-23T20:58:19.644Z,1.10
2022-12-23T21:01:25.135Z,0.80
2022-12-23T21:04:28.007Z,1.00
2022-12-23T21:07:30.830Z,0.73
2022-12-23T21:10:35.671Z,0.60
2022-12-23T21:13:40.562Z,1.30
2022-12-23T21:16:44.214Z,1.10
2022-12-23T21:19:47.044Z,1.03
2022-12-23T21:22:49.863Z,1.43
2022-12-23T21:25:52.733Z,0.90
2022-12-23T21:28:59.720Z,1.27
2022-12-23T21:32:02.553Z,1.10
2022-12-23T21:35:06.061Z,1.70
2022-12-23T21:38:08.824Z,1.10
2022-12-23T21:41:13.596Z,1.00
2022-12-23T21:44:17.747Z,1.20
2022-12-23T21:47:20.662Z,1.00
2022-12-23T21:50:23.425Z,1.40
2022-12-23T21:53:26.471Z,1.10
2022-12-23T21:56:30.715Z,1.00
2022-12-23T21:59:35.548Z,1.20
2022-12-23T22:02:38.452Z,1.33
2022-12-23T22:05:41.199Z,1.40
2022-12-23T22:08:43.883Z,1.20
2022-12-23T22:11:48.137Z,2.10
2022-12-23T22:14:52.322Z,1.43
2022-12-23T22:17:55.802Z,1.43
2022-12-23T22:21:04.797Z,1.90
2022-12-23T22:24:11.267Z,1.47
2022-12-23T22:27:15.931Z,1.60
2022-12-23T22:30:21.082Z,1.23
2022-12-23T22:33:24.085Z,1.40
2022-12-23T22:36:27.657Z,1.27
2022-12-23T22:39:30.643Z,1.50
2022-12-23T22:42:34.579Z,1.60
2022-12-23T22:45:38.615Z,1.50
2022-12-23T22:48:41.497Z,1.80
2022-12-23T22:51:45.053Z,1.50
2022-12-23T22:54:47.785Z,1.97
2022-12-23T22:57:50.473Z,1.80
2022-12-23T23:00:55.160Z,1.40
2022-12-23T23:04:00.178Z,1.47
2022-12-23T23:07:03.523Z,2.10
2022-12-23T23:10:07.480Z,1.60
2022-12-23T23:13:10.266Z,1.47
2022-12-23T23:16:14.620Z,1.90
2022-12-23T23:19:20.368Z,2.17
2022-12-23T23:22:25.680Z,1.80
2022-12-23T23:25:28.351Z,1.83
2022-12-23T23:28:31.503Z,2.80
2022-12-23T23:31:44.049Z,1.87
2022-12-23T23:34:47.151Z,1.80
2022-12-23T23:37:49.957Z,2.50
2022-12-23T23:40:52.949Z,1.87
2022-12-23T23:43:55.647Z,1.70
2022-12-23T23:46:59.684Z,1.97
2022-12-23T23:50:03.538Z,2.00
2022-12-23T23:53:06.363Z,1.77
2022-12-23T23:56:09.662Z,2.20
2022-12-23T23:59:12.460Z,1.97
